North Battleford Airport
CYQW : now visible

Airfield :











YOU CAN JOIN US ON...

 
LOGIN :

Register | Disclaimer

   EN    FR    IT 

 









Legend :    VFR   Marginal VFR   IFR   Intensive IFR   Very Intensive IFR
Visi :
Ceiling :
>= 8 km
>= 3000ft
5 to 8 km
1000 to 3000 ft
1500m to 5 km
500 to 1000 ft
800 to 1500m
200 to 500 ft
< 800m
< 200 ft
Symbols :   Thunderstorms  Fog  Heavy snow  Heavy precipitations  Wind > 20 kt






- Airport Elevation : 1799 ft
- IATA code : YQW


CYQW - North Battleford

CURRENT METAR :
  • 091000Z AUTO 31012KT 9SM -SN OVC018 M10/M13 A2987 RMK SLP162

EXPIRED METARs :
  • 090901Z AUTO 30010KT 9SM -SN OVC020 M11/M14 A2985 RMK SLP158
  • 090819Z AUTO 29009KT 9SM OVC024 M12/M15 A2985 RMK SLP158
  • 090813Z AUTO 28007KT 9SM -SN OVC024 M12/M15 A2985 RMK SLP157
  • 090800Z AUTO 28007KT 9SM OVC026 M12/M15 A2985 RMK SLP157

TAF TAF CYQW
Valid from the 09 at 06:00 until the 09 at 18:00 UTC


090538Z 0906/0918 27012KT P6SM SCT040 BKN080
TEMPO 0906/0908 5SM -SN BKN040 OVC080
FM090800 30012G22KT P6SM SCT015 BKN030
TEMPO 0908/0915 3SM -SN BKN015 OVC030
BECMG 0910/0912 34015G25KT
FM091500 34012G22KT P6SM FEW020 RMK FCST BASED ON AUTO OBS. NXT FCST BY 091200Z



MET'MAP, your aeronautical weather chart ! - Copyright ORBIFLY December 2007 - Disclaimer

ORBIFLY MET'MAP TEAM :

Programming & Development : Alexandra Zaïnal
Concept & original design : Baudouin d'Aumeries
Assistance for programming : Marc-Olivier Méhu
Technical & hardware support : Manuel Goepfert

Contact : metmap@orbifly.com




SOURCES & CREDITS :

   NOAA       Earth
Advisory